Bayan-Ovoo, Mongolia
Current Conditions -  °F | °C
As of 4:30 AM on Wednesday 22 Oct 2014 (Local Time) from ZMUB Reporting Station
Clear Clear  
Wind Chill: 19°   Ceiling: Unl
Heat Index: 19°   Visibility: 6mi
Dew Point: 14°   Wind: 0mph
Humidity: 80%   Direction: NA
Pressure: 29.94"   Gusts: NA
Location:  47.78°N, 112.12°E
Report Text: ZMUB 212030Z 00000MPS CAVOK M07/M10 Q1014 NOSIG RMK QFE653.8 79
Loading
Personal Weather Stations






























Interactive Weather Map
Tropical Storm Tracking
New forecast layout! Learn more

10-Day Weather Forecast

Advertisements
Track Severe Weather on mobile